QLK1738 YSCB-YSSY
Flight info
| Callsign | QLK1738 |
|---|---|
| Flight time | N/A |
| Altitude | 15000 |
| Route | AKMIR3/35 AKMIR W113 ODALE ODALE7/34R |
| Aircraft | DH8D/M-SDE2E3FGRY/H |
Departure
| Time | N/A |
|---|---|
| Airport | Canberra Airport (YSCB) |
Arrival
| Time | 2026-05-04 11:12 |
|---|---|
| Airport | Sydney Kingsford Smith International Airport (YSSY) |
| Time | Latitude | Longitude | Altitude | Speed | Heading |
|---|---|---|---|---|---|
| 2026-05-04 10:56 | -34.15112 | 151.46301 | 5992 ft | 208 kts | 134° |
| 2026-05-04 10:57 | -34.16145 | 151.47551 | 5992 ft | 201 kts | 134° |
| 2026-05-04 10:57 | -34.17111 | 151.48715 | 6028 ft | 223 kts | 135° |
| 2026-05-04 10:57 | -34.18274 | 151.50120 | 6036 ft | 246 kts | 134° |
| 2026-05-04 10:57 | -34.19545 | 151.51663 | 6048 ft | 269 kts | 134° |
| 2026-05-04 10:58 | -34.20877 | 151.53278 | 6033 ft | 285 kts | 134° |
| 2026-05-04 10:58 | -34.22236 | 151.54926 | 6028 ft | 295 kts | 134° |
| 2026-05-04 10:58 | -34.23714 | 151.56734 | 6016 ft | 308 kts | 134° |
| 2026-05-04 10:58 | -34.25163 | 151.58503 | 6007 ft | 306 kts | 134° |
| 2026-05-04 10:59 | -34.26587 | 151.60232 | 5992 ft | 286 kts | 134° |
| 2026-05-04 10:59 | -34.28029 | 151.61786 | 5977 ft | 272 kts | 148° |
| 2026-05-04 10:59 | -34.29640 | 151.62482 | 5983 ft | 254 kts | 177° |
| 2026-05-04 10:59 | -34.31302 | 151.62207 | 5985 ft | 231 kts | 210° |
| 2026-05-04 11:00 | -34.32476 | 151.61070 | 5985 ft | 205 kts | 244° |
| 2026-05-04 11:01 | -34.33321 | 151.51536 | 6016 ft | 174 kts | 274° |
| 2026-05-04 11:02 | -34.33389 | 151.50031 | 6015 ft | 184 kts | 274° |
| 2026-05-04 11:02 | -34.33445 | 151.48533 | 6015 ft | 193 kts | 274° |
| 2026-05-04 11:05 | -34.21256 | 151.29343 | 4940 ft | 231 kts | 312° |
| 2026-05-04 11:06 | -34.20246 | 151.27948 | 4706 ft | 229 kts | 312° |
| 2026-05-04 11:06 | -34.19230 | 151.26544 | 4461 ft | 229 kts | 312° |
| 2026-05-04 11:06 | -34.18140 | 151.25160 | 4208 ft | 224 kts | 322° |
| 2026-05-04 11:06 | -34.16834 | 151.24483 | 3959 ft | 214 kts | 345° |
| 2026-05-04 11:08 | -34.08334 | 151.22295 | 2269 ft | 190 kts | 343° |
| 2026-05-04 11:10 | -33.99851 | 151.20095 | 621 ft | 147 kts | 352° |
| 2026-05-04 11:12 | -33.95743 | 151.18897 | 30 ft | 0 kts | 319° |
| 2026-05-04 11:12 | -33.95740 | 151.18894 | 30 ft | 0 kts | 321° |
| 2026-05-04 11:14 | -33.95739 | 151.18893 | 30 ft | 3 kts | 321° |
| 2026-05-04 11:14 | -33.95654 | 151.18824 | 30 ft | 25 kts | 334° |
| 2026-05-04 11:14 | -33.95470 | 151.18761 | 30 ft | 23 kts | 348° |
| 2026-05-04 11:16 | -33.95035 | 151.18015 | 30 ft | 17 kts | 348° |
| 2026-05-04 11:16 | -33.94893 | 151.17979 | 30 ft | 27 kts | 348° |
| 2026-05-04 11:16 | -33.94723 | 151.17935 | 30 ft | 19 kts | 348° |
| 2026-05-04 11:17 | -33.94618 | 151.17907 | 30 ft | 12 kts | 347° |
| 2026-05-04 11:17 | -33.94551 | 151.17890 | 30 ft | 6 kts | 349° |
| 2026-05-04 11:19 | -33.94344 | 151.17739 | 30 ft | 17 kts | 345° |
| 2026-05-04 11:19 | -33.94248 | 151.17709 | 30 ft | 11 kts | 346° |
| 2026-05-04 11:19 | -33.94193 | 151.17692 | 30 ft | 2 kts | 346° |
| 2026-05-04 11:19 | -33.94191 | 151.17692 | 30 ft | 0 kts | 346° |
| 2026-05-04 11:20 | -33.94123 | 151.17671 | 30 ft | 20 kts | 346° |
| 2026-05-04 11:22 | -33.93095 | 151.17429 | 30 ft | 21 kts | 348° |
| 2026-05-04 11:22 | -33.92988 | 151.17443 | 30 ft | 15 kts | 78° |
| 2026-05-04 11:23 | -33.93001 | 151.17564 | 30 ft | 14 kts | 102° |
| 2026-05-04 11:23 | -33.93024 | 151.17678 | 30 ft | 14 kts | 112° |
| 2026-05-04 11:24 | -33.93014 | 151.18195 | 30 ft | 2 kts | 53° |
| 2026-05-04 11:25 | -33.93017 | 151.18209 | 30 ft | 2 kts | 131° |
| 2026-05-04 11:25 | -33.93034 | 151.18229 | 30 ft | 0 kts | 135° |
| 2026-05-04 11:25 | -33.93042 | 151.18238 | 30 ft | 2 kts | 134° |
| 2026-05-04 11:26 | -33.93045 | 151.18242 | 30 ft | 0 kts | 134° |